createdAt,value
2023-11-24T00:01:48.946Z,100528.59
2023-11-24T00:04:17.060Z,100532.47
2023-11-24T00:06:45.690Z,100521.84
2023-11-24T00:09:13.549Z,100520.56
2023-11-24T00:11:43.742Z,100547.53
2023-11-24T00:14:11.631Z,100540.06
2023-11-24T00:16:40.241Z,100534.28
2023-11-24T00:19:08.384Z,100538.75
2023-11-24T00:21:36.295Z,100525.25
2023-11-24T00:24:05.990Z,100537.28
2023-11-24T00:26:33.935Z,100550.16
2023-11-24T00:29:03.156Z,100533.03
2023-11-24T00:31:31.004Z,100544.16
2023-11-24T00:33:58.891Z,100545.88
2023-11-24T00:36:26.823Z,100525.91
2023-11-24T00:38:54.576Z,100543.44
2023-11-24T00:41:22.421Z,100548.63
2023-11-24T00:43:50.864Z,100545.25
2023-11-24T00:46:23.122Z,100541.13
2023-11-24T00:48:51.379Z,100553.53
2023-11-24T00:51:19.260Z,100558.09
2023-11-24T00:53:47.038Z,100552.59
2023-11-24T00:56:15.382Z,100554.16
2023-11-24T00:58:44.756Z,100546.22
2023-11-24T01:01:12.694Z,100544.94
2023-11-24T01:03:42.164Z,100530.84
2023-11-24T01:06:10.235Z,100527.56
2023-11-24T01:08:37.999Z,100527.00
2023-11-24T01:11:05.900Z,100531.22
2023-11-24T01:13:34.913Z,100530.38
2023-11-24T01:16:03.800Z,100524.28
2023-11-24T01:18:31.688Z,100518.47
2023-11-24T01:21:00.801Z,100526.06
2023-11-24T01:23:29.213Z,100515.09
2023-11-24T01:25:56.992Z,100515.16
2023-11-24T01:28:25.135Z,100510.13
2023-11-24T01:30:55.981Z,100519.63
2023-11-24T01:33:25.576Z,100524.69
2023-11-24T01:35:54.885Z,100525.69
2023-11-24T01:38:25.169Z,100501.13
2023-11-24T01:40:53.242Z,100506.09
2023-11-24T01:43:21.032Z,100513.56
2023-11-24T01:45:49.081Z,100516.03
2023-11-24T01:48:17.845Z,100514.34
2023-11-24T01:50:45.896Z,100515.28
2023-11-24T01:53:15.089Z,100499.88
2023-11-24T01:55:44.306Z,100501.72
2023-11-24T01:58:12.155Z,100499.97
2023-11-24T02:00:40.725Z,100492.38
2023-11-24T02:03:08.683Z,100484.06
2023-11-24T02:05:38.263Z,100491.69
2023-11-24T02:08:06.683Z,100494.28
2023-11-24T02:10:35.209Z,100496.06
2023-11-24T02:13:04.400Z,100492.59
2023-11-24T02:15:32.400Z,100491.00
2023-11-24T02:18:00.233Z,100485.94
2023-11-24T02:20:28.482Z,100477.59
2023-11-24T02:22:57.624Z,100476.72
2023-11-24T02:25:25.597Z,100475.09
2023-11-24T02:27:53.368Z,100480.28
2023-11-24T02:30:21.257Z,100484.66
2023-11-24T02:32:49.041Z,100488.13
2023-11-24T02:35:16.958Z,100483.03
2023-11-24T02:37:44.712Z,100481.44
2023-11-24T02:40:14.386Z,100483.94
2023-11-24T02:42:42.188Z,100479.59
2023-11-24T02:45:11.919Z,100469.28
2023-11-24T02:47:39.834Z,100470.84
2023-11-24T02:50:09.604Z,100467.38
2023-11-24T02:52:37.363Z,100457.91
2023-11-24T02:55:05.844Z,100457.94
2023-11-24T02:57:35.149Z,100454.66
2023-11-24T03:00:03.937Z,100459.81
2023-11-24T03:02:31.868Z,100450.41
2023-11-24T03:04:59.803Z,100449.63
2023-11-24T03:07:27.759Z,100449.69
2023-11-24T03:09:55.551Z,100441.97
2023-11-24T03:12:23.921Z,100441.97
2023-11-24T03:14:54.976Z,100430.06
2023-11-24T03:17:23.065Z,100411.47
2023-11-24T03:19:50.992Z,100428.38
2023-11-24T03:22:18.765Z,100420.72
2023-11-24T03:24:46.862Z,100423.22
2023-11-24T03:27:14.665Z,100424.09
2023-11-24T03:29:42.587Z,100418.16
2023-11-24T03:32:11.739Z,100424.91
2023-11-24T03:34:39.531Z,100401.94
2023-11-24T03:37:07.378Z,100412.84
2023-11-24T03:39:36.072Z,100413.47
2023-11-24T03:42:04.051Z,100416.06
2023-11-24T03:44:31.763Z,100421.97
2023-11-24T03:46:59.538Z,100418.44
2023-11-24T03:49:28.581Z,100405.38
2023-11-24T03:51:56.478Z,100400.16
2023-11-24T03:54:24.531Z,100396.47
2023-11-24T03:56:52.294Z,100399.81
2023-11-24T03:59:20.045Z,100399.56
2023-11-24T04:01:48.033Z,100403.72
2023-11-24T04:04:16.054Z,100407.94
2023-11-24T04:06:47.860Z,100396.72
2023-11-24T04:09:16.131Z,100357.16
2023-11-24T04:11:43.929Z,100395.81
2023-11-24T04:14:11.690Z,100399.34
2023-11-24T04:16:39.626Z,100383.56
2023-11-24T04:19:07.680Z,100394.47
2023-11-24T04:21:36.979Z,100398.56
2023-11-24T04:24:07.149Z,100377.16
2023-11-24T04:26:35.486Z,100395.81
2023-11-24T04:29:03.925Z,100385.44
2023-11-24T04:31:32.300Z,100377.69
2023-11-24T04:34:01.107Z,100374.41
2023-11-24T04:36:29.505Z,100374.84
2023-11-24T04:38:57.461Z,100375.00
2023-11-24T04:41:26.517Z,100395.81
2023-11-24T04:43:54.307Z,100404.56
2023-11-24T04:46:23.156Z,100405.09
2023-11-24T04:48:51.429Z,100397.47
2023-11-24T04:51:19.249Z,100389.03
2023-11-24T04:53:46.991Z,100394.06
2023-11-24T04:56:14.708Z,100398.81
2023-11-24T04:58:43.767Z,100394.66
2023-11-24T05:01:11.576Z,100385.22
2023-11-24T05:03:39.665Z,100356.31
2023-11-24T05:06:07.536Z,100364.59
2023-11-24T05:08:35.280Z,100357.81
2023-11-24T05:11:03.004Z,100368.03
2023-11-24T05:13:30.698Z,100364.66
2023-11-24T05:16:00.510Z,100351.88
2023-11-24T05:18:28.446Z,100353.59
2023-11-24T05:20:56.426Z,100371.50
2023-11-24T05:23:24.239Z,100365.41
2023-11-24T05:25:51.952Z,100367.94
2023-11-24T05:28:19.867Z,100355.06
2023-11-24T05:30:47.985Z,100362.78
2023-11-24T05:33:17.094Z,100358.47
2023-11-24T05:35:44.886Z,100346.53
2023-11-24T05:38:12.719Z,100349.94
2023-11-24T05:40:40.500Z,100337.84
2023-11-24T05:43:08.442Z,100357.34
2023-11-24T05:45:36.634Z,100356.38
2023-11-24T05:48:04.744Z,100343.34
2023-11-24T05:50:33.901Z,100350.03
2023-11-24T05:53:01.661Z,100347.34
2023-11-24T05:55:29.412Z,100348.16
2023-11-24T05:57:57.755Z,100337.03
2023-11-24T06:00:26.739Z,100336.94
2023-11-24T06:02:54.596Z,100343.59
2023-11-24T06:05:22.525Z,100339.16
2023-11-24T06:07:54.214Z,100346.84
2023-11-24T06:10:23.535Z,100322.88
2023-11-24T06:12:51.746Z,100324.44
2023-11-24T06:15:19.509Z,100325.13
2023-11-24T06:17:49.486Z,100320.94
2023-11-24T06:20:17.719Z,100317.47
2023-11-24T06:22:45.658Z,100291.09
2023-11-24T06:25:16.430Z,100276.72
2023-11-24T06:27:44.768Z,100300.22
2023-11-24T06:30:13.080Z,100304.50
2023-11-24T06:32:40.917Z,100301.09
2023-11-24T06:35:11.361Z,100293.69
2023-11-24T06:37:39.375Z,100324.13
2023-11-24T06:40:12.691Z,100319.84
2023-11-24T06:42:42.125Z,100313.13
2023-11-24T06:45:13.872Z,100305.41
2023-11-24T06:47:44.318Z,100303.13
2023-11-24T06:50:13.561Z,100302.31
2023-11-24T06:52:42.006Z,100325.53
2023-11-24T06:55:11.788Z,100298.47
2023-11-24T06:57:41.349Z,100321.19
2023-11-24T07:00:17.418Z,100324.63
2023-11-24T07:02:49.844Z,100316.09
2023-11-24T07:05:18.438Z,100314.41
2023-11-24T07:07:46.706Z,100308.38
2023-11-24T07:10:15.602Z,100323.06
2023-11-24T07:12:45.416Z,100306.00
2023-11-24T07:15:13.997Z,100289.72
2023-11-24T07:17:42.041Z,100285.66
2023-11-24T07:20:12.678Z,100295.19
2023-11-24T07:22:41.006Z,100313.03
2023-11-24T07:25:09.952Z,100308.75
2023-11-24T07:27:37.934Z,100284.38
2023-11-24T07:30:08.739Z,100306.25
2023-11-24T07:32:37.101Z,100303.03
2023-11-24T07:35:05.717Z,100318.41
2023-11-24T07:37:33.649Z,100311.66
2023-11-24T07:40:07.972Z,100309.03
2023-11-24T07:42:36.283Z,100321.03
2023-11-24T07:45:05.019Z,100298.28
2023-11-24T07:47:34.194Z,100315.63
2023-11-24T07:50:02.008Z,100311.22
2023-11-24T07:52:29.902Z,100313.56
2023-11-24T07:54:57.698Z,100300.84
2023-11-24T07:57:26.357Z,100300.00
2023-11-24T07:59:56.870Z,100296.28
2023-11-24T08:02:26.278Z,100297.06
2023-11-24T08:04:56.302Z,100296.09
2023-11-24T08:07:24.964Z,100277.34
2023-11-24T08:09:52.868Z,100275.56
2023-11-24T08:12:20.591Z,100267.88
2023-11-24T08:14:48.321Z,100240.00
2023-11-24T08:17:16.222Z,100256.56
2023-11-24T08:19:44.021Z,100244.25
2023-11-24T08:22:13.648Z,100251.38
2023-11-24T08:24:43.418Z,100219.56
2023-11-24T08:27:11.322Z,100249.28
2023-11-24T08:29:39.269Z,100266.47
2023-11-24T08:32:07.818Z,100263.50
2023-11-24T08:34:35.673Z,100256.25
2023-11-24T08:37:03.743Z,100254.91
2023-11-24T08:39:33.228Z,100254.31
2023-11-24T08:42:01.044Z,100262.44
2023-11-24T08:44:28.862Z,100262.31
2023-11-24T08:46:58.045Z,100229.41
2023-11-24T08:49:25.900Z,100254.41
2023-11-24T08:51:53.954Z,100244.78
2023-11-24T08:54:22.521Z,100255.66
2023-11-24T08:56:51.903Z,100247.66
2023-11-24T08:59:20.290Z,100238.75
2023-11-24T09:01:50.671Z,100212.28
2023-11-24T09:04:18.896Z,100235.47
2023-11-24T09:06:46.729Z,100232.13
2023-11-24T09:09:14.614Z,100197.47
2023-11-24T09:11:43.208Z,100208.97
2023-11-24T09:14:12.404Z,100180.97
2023-11-24T09:16:40.405Z,100183.44
2023-11-24T09:19:08.234Z,100187.47
2023-11-24T09:21:36.303Z,100213.56
2023-11-24T09:24:04.338Z,100202.59
2023-11-24T09:26:33.741Z,100213.66
2023-11-24T09:29:01.822Z,100201.81
2023-11-24T09:31:31.563Z,100215.72
2023-11-24T09:33:59.555Z,100217.63
2023-11-24T09:36:27.408Z,100204.13
2023-11-24T09:38:55.144Z,100206.34
2023-11-24T09:41:22.941Z,100204.78
2023-11-24T09:43:50.911Z,100215.56
2023-11-24T09:46:18.945Z,100215.91
2023-11-24T09:48:48.494Z,100199.84
2023-11-24T09:51:18.997Z,100215.44
2023-11-24T09:53:47.073Z,100214.00
2023-11-24T09:56:15.108Z,100197.94
2023-11-24T09:58:43.496Z,100211.69
2023-11-24T10:01:15.404Z,100214.19
2023-11-24T10:03:49.331Z,100214.41
2023-11-24T10:06:17.511Z,100211.06
2023-11-24T10:08:46.911Z,100212.09
2023-11-24T10:11:16.111Z,100198.94
2023-11-24T10:13:46.622Z,100194.56
2023-11-24T10:16:15.740Z,100186.03
2023-11-24T10:18:44.492Z,100201.88
2023-11-24T10:21:23.598Z,100194.72
2023-11-24T10:23:58.321Z,100202.91
2023-11-24T10:26:26.712Z,100207.66
2023-11-24T10:28:54.932Z,100208.28
2023-11-24T10:31:23.075Z,100205.44
2023-11-24T10:33:51.137Z,100205.59
2023-11-24T10:36:26.281Z,100207.44
2023-11-24T10:39:03.498Z,100190.00
2023-11-24T10:41:31.624Z,100187.78
2023-11-24T10:43:59.454Z,100188.09
2023-11-24T10:46:29.583Z,100192.56
2023-11-24T10:49:07.152Z,100181.47
2023-11-24T10:51:43.168Z,100169.47
2023-11-24T10:54:14.786Z,100152.00
2023-11-24T10:56:43.500Z,100150.00
2023-11-24T10:59:14.737Z,100151.84
2023-11-24T11:01:42.666Z,100150.00
2023-11-24T11:04:10.972Z,100155.06
2023-11-24T11:06:45.123Z,100161.84
2023-11-24T11:09:25.114Z,100160.84
2023-11-24T11:12:03.792Z,100149.81
2023-11-24T11:14:31.771Z,100139.16
2023-11-24T11:17:00.607Z,100141.50
2023-11-24T11:19:32.463Z,100134.00
2023-11-24T11:22:02.500Z,100130.75
2023-11-24T11:24:32.500Z,100126.63
2023-11-24T11:27:00.376Z,100123.03
2023-11-24T11:29:33.208Z,100129.47
2023-11-24T11:32:02.330Z,100129.25
2023-11-24T11:34:31.970Z,100123.66
2023-11-24T11:37:13.239Z,100138.84
2023-11-24T11:39:54.600Z,100136.28
2023-11-24T11:42:32.986Z,100143.31
2023-11-24T11:45:10.855Z,100112.75
2023-11-24T11:47:51.159Z,100125.06
2023-11-24T11:50:21.551Z,100122.75
2023-11-24T11:52:51.327Z,100106.34
2023-11-24T11:55:21.242Z,100116.31
2023-11-24T11:57:54.282Z,100104.41
2023-11-24T12:00:27.328Z,100108.06
2023-11-24T12:02:56.854Z,100099.81
2023-11-24T12:05:27.716Z,100090.00
2023-11-24T12:07:59.799Z,100086.03
2023-11-24T12:10:31.145Z,100088.56
2023-11-24T12:13:05.551Z,100108.44
2023-11-24T12:15:35.435Z,100115.09
2023-11-24T12:18:03.349Z,100128.75
2023-11-24T12:20:32.456Z,100121.53
2023-11-24T12:23:05.598Z,100113.31
2023-11-24T12:25:33.886Z,100123.25
2023-11-24T12:28:06.578Z,100105.59
2023-11-24T12:30:41.483Z,100102.16
2023-11-24T12:33:11.104Z,100109.75
2023-11-24T12:35:39.037Z,100095.13
2023-11-24T12:38:08.297Z,100101.78
2023-11-24T12:40:36.164Z,100087.22
2023-11-24T12:43:04.115Z,100086.16
2023-11-24T12:45:32.300Z,100077.53
2023-11-24T12:48:06.632Z,100062.06
2023-11-24T12:50:34.480Z,100043.06
2023-11-24T12:53:02.224Z,100056.13
2023-11-24T12:55:32.408Z,100050.19
2023-11-24T12:58:01.117Z,100060.19
2023-11-24T13:00:29.993Z,100072.06
2023-11-24T13:02:58.010Z,100062.66
2023-11-24T13:05:26.856Z,100056.03
2023-11-24T13:07:55.068Z,100056.31
2023-11-24T13:10:22.946Z,100061.00
2023-11-24T13:12:52.127Z,100052.63
2023-11-24T13:15:22.438Z,100058.00
2023-11-24T13:17:50.712Z,100046.03
2023-11-24T13:20:19.115Z,100042.78
2023-11-24T13:22:46.981Z,100056.53
2023-11-24T13:25:15.499Z,100042.81
2023-11-24T13:27:44.156Z,100040.13
2023-11-24T13:30:16.576Z,100038.56
2023-11-24T13:32:44.752Z,100014.81
2023-11-24T13:35:15.574Z,100038.22
2023-11-24T13:37:45.583Z,100027.19
2023-11-24T13:40:14.380Z,100025.22
2023-11-24T13:42:42.866Z,100041.47
2023-11-24T13:45:12.897Z,100076.75
2023-11-24T13:47:43.038Z,100086.81
2023-11-24T13:50:12.094Z,100051.13
2023-11-24T13:52:40.117Z,100054.81
2023-11-24T13:55:09.043Z,100053.84
2023-11-24T13:57:37.197Z,100047.25
2023-11-24T14:00:08.366Z,100030.41
2023-11-24T14:02:37.496Z,100034.50
2023-11-24T14:05:09.868Z,100035.31
2023-11-24T14:07:37.740Z,100056.44
2023-11-24T14:10:07.477Z,100045.84
2023-11-24T14:12:36.323Z,100053.34
2023-11-24T14:15:05.667Z,100059.06
2023-11-24T14:17:37.080Z,100059.69
2023-11-24T14:20:08.725Z,100054.31
2023-11-24T14:22:37.523Z,100014.81
2023-11-24T14:25:07.715Z,99999.38
2023-11-24T14:27:36.122Z,100012.25
2023-11-24T14:30:07.491Z,100009.84
2023-11-24T14:32:35.447Z,100036.31
2023-11-24T14:35:06.684Z,100023.53
2023-11-24T14:37:35.957Z,100026.84
2023-11-24T14:40:08.228Z,100018.16
2023-11-24T14:42:36.488Z,100023.03
2023-11-24T14:45:05.728Z,100023.69
2023-11-24T14:47:33.552Z,100031.28
2023-11-24T14:50:07.075Z,100038.91
2023-11-24T14:52:38.051Z,100031.13
2023-11-24T14:55:12.852Z,100031.94
2023-11-24T14:57:40.747Z,100034.56
2023-11-24T15:00:24.727Z,100052.66
2023-11-24T15:02:52.636Z,100060.44
2023-11-24T15:05:20.587Z,100031.47
2023-11-24T15:07:50.634Z,100028.00
2023-11-24T15:10:20.094Z,100027.22
2023-11-24T15:12:49.039Z,100019.50
2023-11-24T15:15:20.618Z,100023.91
2023-11-24T15:17:52.314Z,100021.34
2023-11-24T15:20:27.389Z,100039.31
2023-11-24T15:22:59.490Z,100039.41
2023-11-24T15:25:28.402Z,100045.44
2023-11-24T15:27:57.641Z,100045.47
2023-11-24T15:30:25.814Z,100041.28
2023-11-24T15:32:54.401Z,100073.63
2023-11-24T15:35:22.803Z,100079.66
2023-11-24T15:37:50.578Z,100065.91
2023-11-24T15:40:22.109Z,100083.47
2023-11-24T15:42:55.312Z,100076.88
2023-11-24T15:45:25.190Z,100051.75
2023-11-24T15:48:03.467Z,100047.00
2023-11-24T15:50:35.729Z,100047.19
2023-11-24T15:53:06.579Z,100047.34
2023-11-24T15:55:38.697Z,100048.22
2023-11-24T15:58:09.759Z,100043.22
2023-11-24T16:00:41.077Z,100041.53
2023-11-24T16:03:10.995Z,100054.47
2023-11-24T16:05:46.062Z,100054.53
2023-11-24T16:08:14.479Z,100062.31
2023-11-24T16:10:47.038Z,100060.78
2023-11-24T16:13:15.940Z,100063.34
2023-11-24T16:15:44.060Z,100059.09
2023-11-24T16:18:12.334Z,100073.53
2023-11-24T16:20:41.846Z,100085.25
2023-11-24T16:23:10.176Z,100082.59
2023-11-24T16:25:38.587Z,100099.59
2023-11-24T16:28:08.237Z,100086.03
2023-11-24T16:30:36.196Z,100094.38
2023-11-24T16:33:04.335Z,100065.53
2023-11-24T16:35:32.573Z,100064.81
2023-11-24T16:38:00.728Z,100062.47
2023-11-24T16:40:28.814Z,100047.25
2023-11-24T16:42:56.644Z,100040.50
2023-11-24T16:45:25.841Z,99992.41
2023-11-24T16:47:53.692Z,100000.28
2023-11-24T16:50:21.788Z,100014.47
2023-11-24T16:52:52.242Z,100010.44
2023-11-24T16:55:20.414Z,100016.38
2023-11-24T16:57:48.623Z,100011.41
2023-11-24T17:00:17.528Z,99992.19
2023-11-24T17:02:49.891Z,100020.16
2023-11-24T17:05:19.583Z,100014.25
2023-11-24T17:07:47.586Z,100000.75
2023-11-24T17:10:15.905Z,100014.78
2023-11-24T17:12:44.053Z,100025.03
2023-11-24T17:15:12.561Z,100024.06
2023-11-24T17:17:41.065Z,100016.38
2023-11-24T17:20:14.776Z,100016.28
2023-11-24T17:22:42.316Z,100013.72
2023-11-24T17:25:10.475Z,100005.09
2023-11-24T17:27:38.356Z,100007.56
2023-11-24T17:30:08.055Z,100014.38
2023-11-24T17:32:36.387Z,100019.44
2023-11-24T17:35:06.960Z,100025.31
2023-11-24T17:37:36.096Z,100012.34
2023-11-24T17:40:04.440Z,99999.53
2023-11-24T17:42:32.314Z,99997.75
2023-11-24T17:45:00.160Z,99995.13
2023-11-24T17:47:28.245Z,99992.56
2023-11-24T17:49:56.407Z,100000.19
2023-11-24T17:52:24.215Z,99994.97
2023-11-24T17:54:53.533Z,99993.22
2023-11-24T17:57:21.410Z,99984.47
2023-11-24T17:59:51.155Z,99976.59
2023-11-24T18:02:19.001Z,99977.25
2023-11-24T18:04:46.978Z,99967.91
2023-11-24T18:07:15.624Z,99958.31
2023-11-24T18:09:43.511Z,99975.06
2023-11-24T18:12:12.818Z,99974.09
2023-11-24T18:14:41.121Z,99962.75
2023-11-24T18:17:09.286Z,99954.34
2023-11-24T18:19:37.037Z,99962.03
2023-11-24T18:22:05.384Z,99956.13
2023-11-24T18:24:33.331Z,99957.72
2023-11-24T18:27:01.364Z,99965.34
2023-11-24T18:29:30.574Z,99976.22
2023-11-24T18:31:58.473Z,99964.06
2023-11-24T18:34:29.180Z,99959.59
2023-11-24T18:36:58.626Z,99956.88
2023-11-24T18:39:28.472Z,99942.22
2023-11-24T18:41:56.638Z,99966.16
2023-11-24T18:44:24.471Z,99960.94
2023-11-24T18:46:53.630Z,99968.75
2023-11-24T18:49:21.611Z,99960.13
2023-11-24T18:51:49.640Z,99956.59
2023-11-24T18:54:18.693Z,99965.09
2023-11-24T18:56:46.680Z,99978.75
2023-11-24T18:59:17.271Z,99963.31
2023-11-24T19:01:46.213Z,99981.19
2023-11-24T19:04:15.578Z,100000.81
2023-11-24T19:06:43.528Z,99991.25
2023-11-24T19:09:16.965Z,99992.13
2023-11-24T19:11:45.141Z,100006.91
2023-11-24T19:14:12.996Z,100013.34
2023-11-24T19:16:45.078Z,100044.03
2023-11-24T19:19:13.071Z,100049.53
2023-11-24T19:21:42.558Z,100046.44
2023-11-24T19:24:13.108Z,100051.81
2023-11-24T19:26:40.869Z,100032.41
2023-11-24T19:29:11.822Z,100045.41
2023-11-24T19:31:40.566Z,100046.41
2023-11-24T19:34:09.425Z,100030.34
2023-11-24T19:36:37.591Z,100034.66
2023-11-24T19:39:07.434Z,100038.16
2023-11-24T19:41:35.496Z,100027.13
2023-11-24T19:44:03.252Z,100045.88
2023-11-24T19:46:31.101Z,100013.41
2023-11-24T19:48:59.184Z,100012.59
2023-11-24T19:51:26.963Z,100005.78
2023-11-24T19:53:54.754Z,99993.09
2023-11-24T19:56:23.906Z,100008.34
2023-11-24T19:58:51.830Z,99990.63
2023-11-24T20:01:23.030Z,100011.09
2023-11-24T20:03:51.154Z,100018.84
2023-11-24T20:06:20.101Z,100003.78
2023-11-24T20:08:48.096Z,100031.13
2023-11-24T20:11:15.921Z,100022.97
2023-11-24T20:13:45.250Z,100030.50
2023-11-24T20:16:13.070Z,100033.16
2023-11-24T20:18:45.485Z,100025.66
2023-11-24T20:21:14.018Z,100033.06
2023-11-24T20:23:42.025Z,100034.81
2023-11-24T20:26:09.879Z,100032.41
2023-11-24T20:28:37.680Z,100042.47
2023-11-24T20:31:07.032Z,100035.63
2023-11-24T20:33:36.149Z,100043.31
2023-11-24T20:36:04.152Z,100059.41
2023-11-24T20:38:31.879Z,100072.09
2023-11-24T20:40:59.724Z,100085.72
2023-11-24T20:43:28.855Z,100097.66
2023-11-24T20:45:56.771Z,100120.66
2023-11-24T20:48:26.083Z,100128.28
2023-11-24T20:50:53.986Z,100141.19
2023-11-24T20:53:22.147Z,100150.44
2023-11-24T20:55:50.098Z,100157.25
2023-11-24T20:58:18.089Z,100158.06
2023-11-24T21:00:45.895Z,100150.31
2023-11-24T21:03:15.072Z,100147.72
2023-11-24T21:05:44.370Z,100158.66
2023-11-24T21:08:13.060Z,100154.28
2023-11-24T21:10:41.202Z,100171.34
2023-11-24T21:13:09.718Z,100170.59
2023-11-24T21:15:37.882Z,100179.19
2023-11-24T21:18:06.740Z,100182.69
2023-11-24T21:20:34.874Z,100200.59
2023-11-24T21:23:04.175Z,100199.72
2023-11-24T21:25:32.418Z,100217.75
2023-11-24T21:28:01.425Z,100200.69
2023-11-24T21:30:30.117Z,100225.59
2023-11-24T21:32:58.527Z,100213.16
2023-11-24T21:35:28.742Z,100228.75
2023-11-24T21:37:56.469Z,100228.94
2023-11-24T21:40:26.003Z,100222.19
2023-11-24T21:42:53.947Z,100221.56
2023-11-24T21:45:23.823Z,100228.53
2023-11-24T21:47:52.591Z,100221.06
2023-11-24T21:50:20.462Z,100212.72
2023-11-24T21:52:48.250Z,100229.63
2023-11-24T21:55:16.134Z,100232.25
2023-11-24T21:57:45.311Z,100234.75
2023-11-24T22:00:18.220Z,100235.69
2023-11-24T22:02:46.247Z,100227.19
2023-11-24T22:05:14.570Z,100216.16
2023-11-24T22:07:42.818Z,100221.22
2023-11-24T22:10:11.558Z,100215.44
2023-11-24T22:12:39.723Z,100227.22
2023-11-24T22:15:09.920Z,100219.69
2023-11-24T22:17:38.514Z,100234.22
2023-11-24T22:20:11.765Z,100246.94
2023-11-24T22:22:40.355Z,100251.31
2023-11-24T22:25:09.477Z,100264.97
2023-11-24T22:27:38.034Z,100255.56
2023-11-24T22:30:08.545Z,100241.22
2023-11-24T22:32:37.025Z,100258.88
2023-11-24T22:35:05.294Z,100254.69
2023-11-24T22:37:33.554Z,100267.44
2023-11-24T22:40:01.795Z,100264.09
2023-11-24T22:42:30.233Z,100261.72
2023-11-24T22:44:58.053Z,100272.72
2023-11-24T22:47:27.263Z,100283.84
2023-11-24T22:49:55.084Z,100284.88
2023-11-24T22:52:23.626Z,100293.50
2023-11-24T22:54:51.744Z,100289.41
2023-11-24T22:57:19.505Z,100304.59
2023-11-24T22:59:51.158Z,100309.66
2023-11-24T23:02:19.441Z,100301.94
2023-11-24T23:04:48.928Z,100275.00
2023-11-24T23:07:18.839Z,100315.59
2023-11-24T23:09:47.722Z,100349.50
2023-11-24T23:12:15.683Z,100357.16
2023-11-24T23:14:43.531Z,100355.41
2023-11-24T23:17:11.868Z,100350.22
2023-11-24T23:19:41.672Z,100339.16
2023-11-24T23:22:13.173Z,100362.06
2023-11-24T23:24:46.341Z,100356.88
2023-11-24T23:27:14.328Z,100351.81
2023-11-24T23:29:42.603Z,100349.28
2023-11-24T23:32:10.619Z,100351.09
2023-11-24T23:34:38.483Z,100351.94
2023-11-24T23:37:06.241Z,100357.03
2023-11-24T23:39:36.013Z,100368.19
2023-11-24T23:42:05.501Z,100374.22
2023-11-24T23:44:33.279Z,100373.34
2023-11-24T23:47:01.577Z,100381.03
2023-11-24T23:49:29.453Z,100372.66
2023-11-24T23:51:57.348Z,100377.75
2023-11-24T23:54:25.136Z,100373.53
2023-11-24T23:56:54.190Z,100371.03
2023-11-24T23:59:21.930Z,100382.09
